Time;durP1;ratioP1;P1;durP2;ratioP2;P2;SDS_P1;SDS_P2;PMS_P1;PMS_P2;Temp;Humidity;BMP_temperature;BMP_pressure;BME280_temperature;BME280_humidity;BME280_pressure;Samples;Min_cycle;Max_cycle;Signal;HPM_P1;HPM_P2
2021/09/13 00:01:47;;;;;;;3.42;3.00;;;16.60;78.70;;;;;;6245503;28;20534;-77
2021/09/13 00:04:49;;;;;;;5.65;3.25;;;16.50;78.60;;;;;;6245418;28;20418;-78
2021/09/13 00:07:51;;;;;;;5.80;3.10;;;16.50;78.40;;;;;;6246267;28;20435;-77
2021/09/13 00:10:52;;;;;;;3.30;3.00;;;16.60;78.30;;;;;;6245989;28;20454;-77
2021/09/13 00:13:54;;;;;;;4.60;2.80;;;16.60;78.20;;;;;;6250163;28;20459;-78
2021/09/13 00:16:57;;;;;;;3.73;2.90;;;16.50;78.30;;;;;;6270060;28;20774;-78
2021/09/13 00:19:59;;;;;;;3.88;3.25;;;16.40;78.40;;;;;;6270372;28;20594;-77
2021/09/13 00:23:01;;;;;;;3.88;3.20;;;16.40;78.60;;;;;;6269748;28;20614;-77
2021/09/13 00:26:03;;;;;;;3.42;2.72;;;16.40;78.80;;;;;;6270168;28;20503;-77
2021/09/13 00:29:05;;;;;;;4.82;3.45;;;16.40;78.80;;;;;;6269878;28;20420;-77
2021/09/13 00:32:08;;;;;;;3.60;3.30;;;16.50;78.70;;;;;;6269930;28;20514;-77
2021/09/13 00:35:10;;;;;;;3.47;2.90;;;16.50;78.40;;;;;;6269050;28;20496;-77
2021/09/13 00:38:12;;;;;;;4.65;3.25;;;16.40;77.80;;;;;;6269488;28;20514;-77
2021/09/13 00:41:14;;;;;;;3.22;2.92;;;16.40;78.60;;;;;;6269256;28;20405;-77
2021/09/13 00:44:16;;;;;;;3.88;2.90;;;16.40;78.70;;;;;;6269569;28;20514;-77
2021/09/13 00:47:19;;;;;;;3.43;3.07;;;16.40;78.80;;;;;;6269243;28;20418;-77
2021/09/13 00:50:21;;;;;;;3.87;3.40;;;16.30;79.00;;;;;;6269312;28;20489;-77
2021/09/13 00:53:25;;;;;;;3.50;3.20;;;16.30;79.00;;;;;;6269182;28;20409;-76
2021/09/13 00:56:27;;;;;;;4.90;3.28;;;16.30;78.90;;;;;;6268914;28;21080;-77
2021/09/13 00:59:29;;;;;;;4.13;3.30;;;16.30;78.70;;;;;;6268777;28;20914;-76
2021/09/13 01:02:32;;;;;;;3.50;3.20;;;16.40;78.70;;;;;;6269121;28;20405;-77
2021/09/13 01:05:34;;;;;;;3.77;3.40;;;16.40;78.60;;;;;;6268733;28;20991;-76
2021/09/13 01:08:36;;;;;;;3.60;3.30;;;16.30;78.60;;;;;;6269117;28;20439;-77
2021/09/13 01:11:38;;;;;;;4.50;3.07;;;16.30;78.30;;;;;;6269426;28;20517;-76
2021/09/13 01:14:42;;;;;;;4.88;3.70;;;16.20;79.00;;;;;;6268739;28;20508;-76
2021/09/13 01:17:45;;;;;;;3.58;2.85;;;16.10;78.40;;;;;;6268087;28;20409;-76
2021/09/13 01:20:47;;;;;;;6.65;3.35;;;16.10;78.80;;;;;;6253580;22;20451;-80
2021/09/13 01:23:50;;;;;;;3.72;3.42;;;16.10;79.60;;;;;;6225998;28;20456;-80
2021/09/13 01:26:52;;;;;;;4.57;3.10;;;16.10;79.00;;;;;;6228824;28;20480;-79
2021/09/13 01:29:54;;;;;;;4.30;3.67;;;16.10;79.80;;;;;;6229872;28;20420;-79
2021/09/13 01:32:56;;;;;;;4.72;3.80;;;16.00;79.00;;;;;;6230009;28;20436;-79
2021/09/13 01:35:58;;;;;;;4.45;3.67;;;16.10;79.20;;;;;;6230480;28;20471;-79
2021/09/13 01:39:01;;;;;;;4.88;3.40;;;16.00;79.10;;;;;;6229898;28;20487;-79
2021/09/13 01:42:03;;;;;;;3.55;2.75;;;16.00;79.10;;;;;;6229242;28;20933;-80
2021/09/13 01:45:06;;;;;;;4.15;3.33;;;16.00;79.00;;;;;;6229548;28;20413;-79
2021/09/13 01:48:11;;;;;;;3.53;3.23;;;15.90;79.00;;;;;;6230661;28;20608;-79
2021/09/13 01:51:12;;;;;;;4.80;3.20;;;15.90;79.00;;;;;;6229854;28;20479;-78
2021/09/13 01:54:16;;;;;;;9.18;3.13;;;15.80;78.90;;;;;;6229925;28;20985;-79
2021/09/13 01:57:17;;;;;;;3.55;3.25;;;15.80;79.10;;;;;;6229755;28;20449;-79
2021/09/13 02:00:19;;;;;;;7.07;3.30;;;15.70;79.10;;;;;;6230001;28;20848;-80
2021/09/13 02:03:21;;;;;;;3.67;2.97;;;15.60;79.20;;;;;;6229392;28;20424;-79
2021/09/13 02:06:23;;;;;;;4.73;3.17;;;15.60;79.10;;;;;;6229664;28;20464;-79
2021/09/13 02:09:26;;;;;;;4.90;3.28;;;15.50;79.40;;;;;;6229207;28;20440;-79
2021/09/13 02:12:28;;;;;;;4.63;3.17;;;15.50;79.40;;;;;;6230341;28;20460;-79
2021/09/13 02:15:30;;;;;;;6.53;3.60;;;15.60;79.80;;;;;;6230175;28;20511;-80
2021/09/13 02:18:32;;;;;;;4.22;3.50;;;15.50;79.70;;;;;;6229036;28;20511;-79
2021/09/13 02:21:33;;;;;;;3.92;3.60;;;15.50;80.00;;;;;;6229421;28;20416;-80
2021/09/13 02:24:37;;;;;;;6.78;4.45;;;15.50;80.50;;;;;;6229811;28;20567;-80
2021/09/13 02:27:38;;;;;;;4.38;3.72;;;15.50;80.00;;;;;;6230105;28;20440;-79
2021/09/13 02:30:40;;;;;;;5.18;3.78;;;15.50;80.00;;;;;;6229347;28;20459;-80
2021/09/13 02:33:42;;;;;;;4.10;3.70;;;15.50;80.60;;;;;;6229304;28;20419;-80
2021/09/13 02:36:44;;;;;;;6.03;3.97;;;15.60;80.10;;;;;;6228735;28;20472;-80
2021/09/13 02:39:47;;;;;;;5.07;3.72;;;15.60;80.60;;;;;;6229313;28;20966;-79
2021/09/13 02:42:49;;;;;;;3.58;3.28;;;15.60;80.60;;;;;;6229660;28;20500;-80
2021/09/13 02:45:51;;;;;;;6.10;4.57;;;15.60;80.50;;;;;;6228961;28;20833;-80
2021/09/13 02:48:53;;;;;;;5.72;4.20;;;15.70;80.90;;;;;;6229151;28;20417;-80
2021/09/13 02:51:55;;;;;;;5.27;4.80;;;15.60;79.70;;;;;;6229568;28;20487;-80
2021/09/13 02:54:58;;;;;;;4.13;3.72;;;15.60;80.90;;;;;;6228822;28;20436;-79
2021/09/13 02:58:00;;;;;;;5.65;5.15;;;15.60;81.10;;;;;;6229034;28;20487;-80
2021/09/13 03:01:02;;;;;;;5.88;4.00;;;15.60;80.90;;;;;;6229168;28;20937;-80
2021/09/13 03:04:04;;;;;;;4.90;4.30;;;15.60;81.00;;;;;;6229973;28;20439;-80
2021/09/13 03:07:06;;;;;;;4.63;4.00;;;15.60;81.30;;;;;;6229089;28;20536;-80
2021/09/13 03:10:11;;;;;;;5.75;3.88;;;15.50;80.80;;;;;;6229618;28;20413;-80
2021/09/13 03:13:14;;;;;;;5.32;3.65;;;15.50;80.90;;;;;;6229932;28;20496;-80
2021/09/13 03:16:16;;;;;;;4.63;4.13;;;15.50;80.30;;;;;;6229850;28;20443;-80
2021/09/13 03:19:17;;;;;;;4.57;4.00;;;15.50;80.50;;;;;;6229151;28;20425;-79
2021/09/13 03:22:19;;;;;;;4.30;3.17;;;15.50;80.90;;;;;;6229277;28;20413;-79
2021/09/13 03:25:24;;;;;;;4.85;4.32;;;15.50;80.20;;;;;;6229244;28;21022;-80
2021/09/13 03:28:26;;;;;;;4.30;3.72;;;15.50;80.30;;;;;;6230006;28;20802;-80
2021/09/13 03:31:28;;;;;;;4.43;3.63;;;15.50;80.10;;;;;;6229857;28;20437;-80
2021/09/13 03:34:30;;;;;;;7.03;4.40;;;15.50;80.20;;;;;;6229745;28;20563;-80
2021/09/13 03:37:32;;;;;;;5.03;4.50;;;15.50;80.50;;;;;;6230254;28;20436;-79
2021/09/13 03:40:35;;;;;;;5.37;4.80;;;15.50;80.90;;;;;;6230207;28;20515;-80
2021/09/13 03:43:36;;;;;;;9.10;4.35;;;15.50;80.90;;;;;;6229943;28;20854;-80
2021/09/13 03:46:38;;;;;;;4.88;4.18;;;15.50;80.40;;;;;;6228567;28;20480;-79
2021/09/13 03:49:40;;;;;;;5.38;4.50;;;15.50;79.70;;;;;;6230400;28;20764;-79
2021/09/13 03:52:42;;;;;;;6.70;4.22;;;15.40;80.00;;;;;;6229883;28;20456;-79
2021/09/13 03:55:45;;;;;;;5.13;4.63;;;15.40;80.30;;;;;;6229920;28;20432;-80
2021/09/13 03:58:47;;;;;;;7.10;5.18;;;15.30;80.50;;;;;;6229948;28;20440;-80
2021/09/13 04:01:50;;;;;;;5.30;4.77;;;15.30;80.70;;;;;;6230006;28;20433;-79
2021/09/13 04:04:52;;;;;;;6.70;5.05;;;15.20;80.00;;;;;;6230010;28;20412;-79
2021/09/13 04:08:15;;;;;;;5.65;5.05;;;15.30;80.10;;;;;;6230885;28;20456;-80
2021/09/13 04:11:22;;;;;;;6.97;4.38;;;15.20;80.20;;;;;;6230132;28;20416;-79
2021/09/13 04:14:26;;;;;;;6.60;4.43;;;15.20;80.20;;;;;;6229731;28;20930;-79
2021/09/13 04:17:28;;;;;;;5.18;4.43;;;15.10;80.10;;;;;;6230421;28;20887;-80
2021/09/13 04:20:30;;;;;;;6.15;4.68;;;15.10;80.20;;;;;;6232081;28;20527;-80
2021/09/13 04:23:32;;;;;;;5.40;4.38;;;15.10;80.10;;;;;;6233130;28;20432;-79
2021/09/13 04:26:36;;;;;;;6.38;4.00;;;15.10;79.70;;;;;;6232783;28;20770;-79
2021/09/13 04:29:38;;;;;;;5.78;5.28;;;15.10;79.90;;;;;;6228973;28;20416;-77
2021/09/13 04:32:40;;;;;;;4.28;3.88;;;15.10;80.10;;;;;;6225512;28;20566;-77
2021/09/13 04:35:42;;;;;;;6.43;4.45;;;15.20;80.20;;;;;;6224868;28;20550;-77
2021/09/13 04:38:44;;;;;;;5.72;4.70;;;15.20;79.90;;;;;;6223732;28;20551;-77
2021/09/13 04:41:47;;;;;;;7.60;4.65;;;15.20;80.10;;;;;;6223776;28;20977;-77
2021/09/13 04:44:49;;;;;;;6.27;4.87;;;15.20;80.60;;;;;;6228101;28;20493;-78
2021/09/13 04:47:51;;;;;;;6.20;5.55;;;15.20;80.10;;;;;;6224794;28;20479;-78
2021/09/13 04:50:53;;;;;;;5.23;4.73;;;15.20;80.20;;;;;;6224248;28;20530;-78
2021/09/13 04:53:55;;;;;;;5.47;4.93;;;15.30;80.80;;;;;;6224179;28;20568;-78
2021/09/13 04:56:58;;;;;;;6.68;6.13;;;15.30;80.50;;;;;;6223229;28;20496;-78
2021/09/13 05:00:00;;;;;;;5.90;5.40;;;15.30;80.60;;;;;;6229264;28;20633;-78
2021/09/13 05:03:01;;;;;;;7.25;5.25;;;15.30;80.30;;;;;;6229775;28;20521;-78
2021/09/13 05:06:04;;;;;;;5.35;4.85;;;15.40;80.90;;;;;;6229170;28;20428;-78
2021/09/13 05:09:06;;;;;;;9.35;5.63;;;15.30;80.50;;;;;;6229045;28;20574;-77
2021/09/13 05:12:09;;;;;;;6.13;5.00;;;15.30;81.40;;;;;;6230504;28;20438;-78
2021/09/13 05:15:12;;;;;;;5.68;5.15;;;15.30;81.40;;;;;;6228802;28;20941;-78
2021/09/13 05:18:13;;;;;;;5.90;4.88;;;15.30;80.90;;;;;;6227599;28;20993;-78
2021/09/13 05:21:16;;;;;;;6.10;5.50;;;15.30;81.60;;;;;;6226515;28;20471;-77
2021/09/13 05:24:18;;;;;;;8.13;5.65;;;15.40;82.10;;;;;;6226690;28;20432;-77
2021/09/13 05:27:21;;;;;;;7.82;5.68;;;15.40;82.10;;;;;;6225812;28;20889;-77
2021/09/13 05:30:23;;;;;;;7.40;5.22;;;15.40;82.00;;;;;;6224973;28;20513;-78
2021/09/13 05:33:25;;;;;;;6.30;5.70;;;15.80;81.90;;;;;;6225738;28;20524;-77
2021/09/13 05:36:27;;;;;;;6.53;5.65;;;15.50;81.40;;;;;;6225207;28;20432;-77
2021/09/13 05:39:29;;;;;;;12.98;5.40;;;15.60;81.60;;;;;;6226440;28;20538;-77
2021/09/13 05:42:32;;;;;;;7.75;6.15;;;15.80;81.00;;;;;;6225955;28;20445;-77
2021/09/13 05:45:34;;;;;;;6.33;5.73;;;15.80;81.40;;;;;;6226257;28;20508;-77
2021/09/13 05:48:36;;;;;;;5.90;5.40;;;16.00;81.00;;;;;;6225991;28;20527;-78
2021/09/13 05:51:40;;;;;;;6.88;6.18;;;16.10;80.20;;;;;;6227252;28;20922;-77
2021/09/13 05:54:41;;;;;;;5.78;5.20;;;16.30;80.10;;;;;;6225370;28;20930;-78
2021/09/13 05:57:45;;;;;;;6.77;5.93;;;16.40;79.80;;;;;;6225167;28;20638;-77
2021/09/13 06:00:46;;;;;;;7.20;6.53;;;16.60;79.10;;;;;;6226784;28;20445;-78
2021/09/13 06:03:48;;;;;;;7.50;6.82;;;16.70;79.00;;;;;;6225315;28;20522;-77
2021/09/13 06:06:50;;;;;;;7.60;6.80;;;16.90;78.90;;;;;;6223704;28;20823;-77
2021/09/13 06:09:52;;;;;;;8.95;7.60;;;17.10;78.40;;;;;;6223177;28;20416;-77
2021/09/13 06:12:56;;;;;;;8.50;6.88;;;17.20;77.80;;;;;;6226154;28;20416;-77
2021/09/13 06:15:58;;;;;;;6.80;6.20;;;17.40;78.00;;;;;;6225883;28;20432;-78
2021/09/13 06:18:59;;;;;;;6.40;5.72;;;17.60;77.00;;;;;;6226477;28;20421;-78
2021/09/13 06:22:01;;;;;;;8.40;6.80;;;17.80;76.50;;;;;;6225186;28;20510;-78
2021/09/13 06:25:04;;;;;;;6.80;5.85;;;17.90;76.00;;;;;;6226356;28;20811;-78
2021/09/13 06:28:07;;;;;;;10.00;7.07;;;18.00;75.70;;;;;;6227813;28;20564;-78
2021/09/13 06:31:09;;;;;;;6.28;5.75;;;18.00;75.30;;;;;;6227550;28;20459;-78
2021/09/13 06:34:15;;;;;;;7.28;6.07;;;18.00;75.40;;;;;;6224806;28;20450;-77
2021/09/13 06:37:19;;;;;;;7.82;6.55;;;18.10;75.40;;;;;;6224782;28;20497;-78
2021/09/13 06:40:21;;;;;;;7.28;5.82;;;18.10;74.90;;;;;;6224335;28;20970;-77
2021/09/13 06:43:27;;;;;;;6.93;5.72;;;18.20;75.00;;;;;;6223117;28;20506;-78
2021/09/13 06:46:40;;;;;;;6.68;6.05;;;18.40;74.50;;;;;;6235745;28;20467;-80
2021/09/13 06:49:42;;;;;;;8.25;6.30;;;18.60;73.80;;;;;;6249890;28;20554;-79
2021/09/13 06:52:45;;;;;;;6.35;5.75;;;18.90;73.20;;;;;;6253291;28;20508;-79
2021/09/13 06:55:47;;;;;;;7.60;6.75;;;19.10;72.40;;;;;;6252695;28;20512;-79
2021/09/13 06:58:52;;;;;;;6.90;6.28;;;19.10;71.70;;;;;;6252993;28;20442;-79
2021/09/13 07:01:54;;;;;;;6.40;5.85;;;19.40;72.00;;;;;;6253960;28;20423;-79
2021/09/13 07:04:56;;;;;;;7.43;5.68;;;19.50;71.30;;;;;;6253419;28;20467;-79
2021/09/13 07:07:57;;;;;;;6.88;6.00;;;20.00;70.10;;;;;;6253011;28;20531;-81
2021/09/13 07:11:01;;;;;;;7.77;6.37;;;20.30;68.60;;;;;;6252815;28;20411;-80
2021/09/13 07:14:05;;;;;;;6.82;6.13;;;20.40;67.00;;;;;;6253878;28;20447;-80
2021/09/13 07:17:07;;;;;;;10.55;5.95;;;20.40;67.10;;;;;;6230485;28;20417;-80
2021/09/13 07:20:10;;;;;;;7.10;6.23;;;20.60;67.00;;;;;;6237403;28;20496;-79
2021/09/13 07:23:12;;;;;;;7.53;5.47;;;20.70;66.30;;;;;;6252175;28;20461;-79
2021/09/13 07:26:13;;;;;;;6.25;5.65;;;20.80;65.30;;;;;;6252442;28;20411;-79
2021/09/13 07:29:17;;;;;;;6.10;5.50;;;21.00;65.20;;;;;;6253100;28;20407;-79
2021/09/13 07:32:19;;;;;;;7.63;5.25;;;21.30;64.50;;;;;;6253927;28;20498;-79
2021/09/13 07:35:21;;;;;;;5.50;5.03;;;21.60;63.50;;;;;;6252797;28;20422;-79
2021/09/13 07:38:24;;;;;;;5.75;4.95;;;21.90;62.50;;;;;;6256189;28;20501;-79
2021/09/13 07:41:26;;;;;;;5.97;5.40;;;22.20;61.10;;;;;;6252878;28;20458;-79
2021/09/13 07:44:29;;;;;;;5.60;5.10;;;22.50;60.70;;;;;;6253519;28;20467;-79
2021/09/13 07:47:31;;;;;;;8.48;5.50;;;22.50;59.80;;;;;;6246090;28;20438;-80
2021/09/13 07:50:33;;;;;;;6.47;4.85;;;22.30;61.00;;;;;;6225935;28;20470;-79
2021/09/13 07:53:35;;;;;;;6.07;5.30;;;22.40;61.10;;;;;;6233729;28;20486;-78
2021/09/13 07:56:37;;;;;;;11.27;5.30;;;22.50;60.20;;;;;;6246184;28;20470;-79
2021/09/13 07:59:40;;;;;;;6.38;5.75;;;22.60;60.60;;;;;;6250535;28;20546;-78
2021/09/13 08:02:43;;;;;;;5.93;4.90;;;22.90;59.60;;;;;;6249294;28;20530;-78
2021/09/13 08:05:44;;;;;;;6.20;4.45;;;23.00;59.50;;;;;;6249935;28;21027;-79
2021/09/13 08:08:46;;;;;;;7.10;4.55;;;23.30;58.90;;;;;;6249389;28;20502;-79
2021/09/13 08:11:48;;;;;;;5.32;4.70;;;23.60;58.10;;;;;;6250702;28;20589;-79
2021/09/13 08:14:51;;;;;;;5.30;4.80;;;23.80;57.40;;;;;;6244027;28;20421;-78
2021/09/13 08:17:54;;;;;;;7.05;5.18;;;24.10;56.50;;;;;;6235395;28;20462;-78
2021/09/13 08:20:55;;;;;;;7.35;4.43;;;24.20;56.00;;;;;;6245791;28;20422;-77
2021/09/13 08:23:58;;;;;;;6.72;4.60;;;24.40;56.10;;;;;;6250372;28;20470;-78
2021/09/13 08:26:59;;;;;;;8.40;4.22;;;24.70;55.00;;;;;;6247728;28;20963;-78
2021/09/13 08:30:03;;;;;;;4.82;3.85;;;24.90;54.50;;;;;;6248194;28;20442;-78
2021/09/13 08:33:05;;;;;;;7.13;4.72;;;24.90;54.30;;;;;;6246931;28;20493;-78
2021/09/13 08:36:07;;;;;;;6.60;4.60;;;25.00;53.90;;;;;;6247920;28;20920;-78
2021/09/13 08:39:09;;;;;;;5.30;4.10;;;25.20;53.70;;;;;;6248224;28;20426;-78
2021/09/13 08:42:11;;;;;;;6.82;4.72;;;25.40;54.10;;;;;;6247546;28;20411;-78
2021/09/13 08:45:21;;;;;;;6.53;4.00;;;25.60;52.80;;;;;;6240952;28;20507;-78
2021/09/13 08:48:26;;;;;;;10.48;4.45;;;25.70;52.80;;;;;;6224106;28;20574;-79
2021/09/13 08:51:31;;;;;;;8.35;4.45;;;25.90;51.60;;;;;;6223424;28;20440;-78
2021/09/13 08:54:35;;;;;;;4.17;3.70;;;26.00;51.40;;;;;;6229463;28;20422;-78
2021/09/13 08:57:38;;;;;;;5.32;3.85;;;26.40;51.40;;;;;;6224983;28;20409;-78
2021/09/13 09:00:43;;;;;;;8.00;3.85;;;26.60;50.60;;;;;;6222358;28;20495;-78
2021/09/13 09:03:47;;;;;;;5.53;3.05;;;26.70;50.70;;;;;;6223202;28;20527;-78
2021/09/13 09:06:50;;;;;;;5.43;3.90;;;26.90;50.30;;;;;;6222204;28;20423;-78
2021/09/13 09:10:10;;;;;;;5.95;3.13;;;27.00;49.90;;;;;;6222862;28;20416;-78
2021/09/13 09:13:13;;;;;;;6.25;3.65;;;27.10;49.40;;;;;;6221366;28;20567;-76
2021/09/13 09:16:17;;;;;;;10.07;4.37;;;27.10;48.90;;;;;;6227595;28;20434;-76
2021/09/13 09:19:20;;;;;;;3.88;3.47;;;27.20;48.50;;;;;;6236123;28;20773;-77
2021/09/13 09:22:24;;;;;;;5.95;3.47;;;27.00;49.20;;;;;;6244520;28;20946;-77
2021/09/13 09:25:29;;;;;;;3.90;2.80;;;27.10;50.10;;;;;;6243795;28;20550;-77
2021/09/13 09:28:35;;;;;;;3.50;2.80;;;27.40;49.20;;;;;;6246510;28;20439;-79
2021/09/13 09:31:39;;;;;;;16.40;4.07;;;27.70;48.30;;;;;;6248696;28;20486;-79
2021/09/13 09:34:41;;;;;;;5.63;3.17;;;27.90;47.30;;;;;;6248531;28;20419;-80
2021/09/13 09:37:43;;;;;;;4.38;2.97;;;28.10;46.90;;;;;;6246462;28;20498;-77
2021/09/13 09:40:45;;;;;;;3.58;3.10;;;28.20;46.90;;;;;;6243535;28;20430;-76
2021/09/13 09:43:56;;;;;;;3.10;2.80;;;28.10;46.50;;;;;;6244213;28;21046;-76
2021/09/13 09:47:07;;;;;;;3.33;2.80;;;28.30;46.70;;;;;;6238455;28;20484;-79
2021/09/13 09:50:10;;;;;;;5.88;3.30;;;28.40;46.90;;;;;;6251022;28;20423;-78
2021/09/13 09:53:15;;;;;;;6.55;3.13;;;28.30;45.20;;;;;;6251604;28;20490;-78
2021/09/13 09:56:17;;;;;;;3.53;3.05;;;28.00;46.30;;;;;;6248346;28;20515;-79
2021/09/13 09:59:19;;;;;;;4.07;2.75;;;27.80;47.20;;;;;;6227391;28;20510;-79
2021/09/13 10:02:23;;;;;;;3.95;2.80;;;28.00;47.30;;;;;;6227477;28;20504;-78
2021/09/13 10:05:27;;;;;;;4.82;2.75;;;28.30;45.50;;;;;;6226898;28;20514;-78
2021/09/13 10:08:29;;;;;;;4.15;2.70;;;28.50;45.10;;;;;;6227880;28;20432;-79
2021/09/13 10:11:32;;;;;;;2.50;2.20;;;28.70;45.50;;;;;;6228178;28;20533;-78
2021/09/13 10:14:34;;;;;;;3.30;2.47;;;28.80;44.90;;;;;;6227015;28;20483;-78
2021/09/13 10:17:38;;;;;;;4.45;3.42;;;28.80;44.50;;;;;;6237711;28;20436;-79
2021/09/13 10:20:42;;;;;;;4.63;2.57;;;29.00;44.50;;;;;;6251094;28;20514;-79
2021/09/13 10:23:45;;;;;;;4.05;2.38;;;29.10;44.00;;;;;;6248715;28;20435;-76
2021/09/13 10:26:49;;;;;;;4.72;2.75;;;29.20;43.80;;;;;;6247435;28;20609;-76
2021/09/13 10:30:13;;;;;;;5.70;2.70;;;29.30;43.00;;;;;;6247743;28;20494;-76
2021/09/13 10:33:17;;;;;;;2.58;2.15;;;29.00;42.60;;;;;;6247833;28;20415;-76
2021/09/13 10:36:18;;;;;;;4.47;2.25;;;28.90;44.00;;;;;;6248244;28;20493;-76
2021/09/13 10:39:48;;;;;;;5.25;3.17;;;29.10;43.70;;;;;;6247564;28;20493;-76
2021/09/13 10:42:50;;;;;;;4.32;2.42;;;28.90;42.90;;;;;;6247637;28;20501;-76
2021/09/13 10:45:52;;;;;;;4.32;2.20;;;28.70;44.10;;;;;;6240225;28;20986;-76
2021/09/13 10:49:10;;;;;;;4.03;2.65;;;28.80;44.80;;;;;;6240737;28;20497;-79
2021/09/13 10:52:36;;;;;;;4.15;2.78;;;28.60;44.60;;;;;;6251867;28;20924;-79
2021/09/13 10:55:41;;;;;;;3.50;3.20;;;28.60;44.50;;;;;;6244578;28;20422;-79
2021/09/13 10:58:46;;;;;;;5.97;3.05;;;28.60;45.00;;;;;;6225585;28;20802;-79
2021/09/13 11:02:07;;;;;;;2.95;2.72;;;28.70;44.70;;;;;;6226188;28;20429;-78
2021/09/13 11:05:25;;;;;;;4.13;2.65;;;28.90;43.70;;;;;;6226875;28;20463;-79
2021/09/13 11:08:27;;;;;;;4.15;2.55;;;29.20;44.70;;;;;;6223438;28;20436;-79
2021/09/13 11:11:31;;;;;;;6.22;2.53;;;29.80;43.00;;;;;;6228422;28;20473;-78
2021/09/13 11:14:34;;;;;;;3.38;2.90;;;30.10;42.80;;;;;;6224856;28;20488;-81
2021/09/13 11:17:36;;;;;;;3.53;2.90;;;30.10;42.30;;;;;;6230721;28;20474;-79
2021/09/13 11:20:39;;;;;;;6.03;2.50;;;30.20;41.80;;;;;;6251274;28;20561;-81
2021/09/13 11:23:41;;;;;;;5.82;3.15;;;30.00;43.60;;;;;;6251329;28;20434;-78
2021/09/13 11:26:47;;;;;;;4.45;2.63;;;29.90;42.00;;;;;;6250368;28;20545;-79
2021/09/13 11:29:49;;;;;;;2.90;2.58;;;29.80;42.20;;;;;;6249435;28;20414;-79
2021/09/13 11:32:51;;;;;;;3.08;2.40;;;29.60;43.00;;;;;;6249540;28;20548;-79
2021/09/13 11:35:56;;;;;;;5.00;2.70;;;29.70;43.30;;;;;;6250297;28;20912;-79
2021/09/13 11:39:00;;;;;;;3.13;2.80;;;29.90;42.70;;;;;;6249846;28;20421;-78
2021/09/13 11:42:05;;;;;;;3.50;2.80;;;30.20;42.20;;;;;;6250854;28;20435;-79
2021/09/13 11:45:12;;;;;;;3.78;2.30;;;30.60;41.40;;;;;;6243506;28;20444;-79
2021/09/13 11:48:13;;;;;;;5.25;3.08;;;30.50;40.70;;;;;;6240643;28;20510;-80
2021/09/13 11:51:17;;;;;;;4.03;2.30;;;30.30;40.70;;;;;;6251636;28;20697;-79
2021/09/13 11:54:18;;;;;;;4.00;2.17;;;30.40;41.80;;;;;;6249675;28;20514;-79
2021/09/13 11:57:32;;;;;;;3.22;2.47;;;30.60;41.10;;;;;;6248144;28;20462;-79
2021/09/13 12:00:36;;;;;;;3.30;2.38;;;31.20;40.70;;;;;;6247298;28;20511;-78
2021/09/13 12:03:38;;;;;;;5.07;2.20;;;31.60;39.90;;;;;;6249038;28;20431;-79
2021/09/13 12:06:41;;;;;;;4.65;2.50;;;32.00;39.50;;;;;;6249876;28;20438;-79
2021/09/13 12:09:45;;;;;;;3.23;1.80;;;31.80;39.50;;;;;;6248408;28;20415;-77
2021/09/13 12:12:49;;;;;;;4.55;2.13;;;31.80;39.60;;;;;;6245008;28;20985;-76
2021/09/13 12:15:52;;;;;;;3.70;2.38;;;31.90;39.20;;;;;;6237913;28;20469;-76
2021/09/13 12:18:54;;;;;;;3.50;2.25;;;32.10;39.00;;;;;;6236543;28;20423;-76
2021/09/13 12:22:01;;;;;;;6.25;2.50;;;32.10;37.80;;;;;;6244429;28;20500;-76
2021/09/13 12:25:10;;;;;;;3.28;2.42;;;32.30;38.20;;;;;;6244366;28;20547;-77
2021/09/13 12:28:12;;;;;;;2.92;2.20;;;32.60;37.80;;;;;;6244678;28;20465;-76
2021/09/13 12:31:26;;;;;;;3.75;2.20;;;32.50;37.80;;;;;;6243884;28;21344;-77
2021/09/13 12:34:28;;;;;;;2.80;2.40;;;32.10;38.20;;;;;;6243903;28;20415;-77
2021/09/13 12:37:38;;;;;;;3.80;2.37;;;31.90;38.60;;;;;;6244263;28;20561;-76
2021/09/13 12:40:54;;;;;;;4.43;2.60;;;31.20;39.00;;;;;;6244998;28;20427;-76
2021/09/13 12:43:56;;;;;;;4.65;2.00;;;30.70;41.30;;;;;;6244990;28;21101;-77
2021/09/13 12:46:58;;;;;;;4.55;2.60;;;30.80;40.30;;;;;;6231568;28;20425;-76
2021/09/13 12:50:00;;;;;;;3.30;2.83;;;30.80;40.10;;;;;;6244550;28;20480;-80
2021/09/13 12:53:14;;;;;;;4.07;2.45;;;30.50;40.70;;;;;;6248661;28;20435;-76
2021/09/13 12:56:17;;;;;;;3.20;2.13;;;30.70;40.90;;;;;;6244846;28;20474;-79
2021/09/13 12:59:21;;;;;;;2.80;2.45;;;30.80;40.40;;;;;;6242692;28;20506;-78
2021/09/13 13:02:23;;;;;;;3.33;2.47;;;31.00;40.20;;;;;;6243980;28;20789;-78
2021/09/13 13:05:33;;;;;;;8.52;2.90;;;31.20;39.60;;;;;;6244653;28;20426;-78
2021/09/13 13:08:36;;;;;;;3.20;1.90;;;31.10;39.90;;;;;;6244208;28;20423;-78
2021/09/13 13:11:40;;;;;;;3.20;2.17;;;31.30;40.10;;;;;;6245618;28;20474;-77
2021/09/13 13:14:42;;;;;;;3.40;2.05;;;31.40;39.50;;;;;;6242019;28;20419;-77
2021/09/13 13:17:47;;;;;;;2.50;2.30;;;31.10;39.70;;;;;;6227832;28;20833;-77
2021/09/13 13:20:50;;;;;;;3.03;2.33;;;31.20;39.10;;;;;;6227080;28;20475;-79
2021/09/13 13:23:54;;;;;;;2.28;2.05;;;31.70;39.40;;;;;;6270860;23;20951;-77
2021/09/13 13:26:56;;;;;;;3.53;1.90;;;31.80;38.70;;;;;;6258536;28;20415;-77
2021/09/13 13:29:57;;;;;;;2.70;2.13;;;31.80;39.20;;;;;;6273017;28;20480;-78
2021/09/13 13:32:59;;;;;;;3.38;2.33;;;31.90;38.30;;;;;;6275022;28;20817;-77
2021/09/13 13:36:01;;;;;;;3.38;2.40;;;31.70;38.60;;;;;;6276458;28;20512;-77
2021/09/13 13:39:05;;;;;;;3.70;2.10;;;31.70;38.70;;;;;;6275589;28;20512;-78
2021/09/13 13:42:07;;;;;;;6.40;2.10;;;31.40;38.40;;;;;;6276895;28;20435;-78
2021/09/13 13:45:09;;;;;;;3.67;2.13;;;31.30;39.80;;;;;;6269987;28;20561;-77
2021/09/13 13:48:11;;;;;;;2.90;2.10;;;31.40;39.20;;;;;;6266463;28;20518;-77
2021/09/13 13:51:13;;;;;;;2.97;2.00;;;31.60;38.50;;;;;;6276273;28;20421;-77
2021/09/13 13:54:16;;;;;;;2.42;1.80;;;32.00;38.30;;;;;;6274147;28;20421;-77
2021/09/13 13:57:18;;;;;;;3.30;2.30;;;32.20;37.50;;;;;;6273691;28;20471;-77
2021/09/13 14:00:20;;;;;;;3.30;2.40;;;32.30;37.30;;;;;;6246078;28;20520;-76
2021/09/13 14:03:22;;;;;;;2.78;2.40;;;32.20;37.20;;;;;;6248674;28;20425;-77
2021/09/13 14:06:25;;;;;;;2.83;2.43;;;31.60;37.60;;;;;;6248420;28;20419;-77
2021/09/13 14:09:28;;;;;;;2.28;2.08;;;31.50;39.10;;;;;;6247550;28;20752;-78
2021/09/13 14:12:30;;;;;;;4.03;2.55;;;31.80;38.80;;;;;;6257565;28;20522;-76
2021/09/13 14:15:32;;;;;;;2.30;1.88;;;31.70;37.80;;;;;;6261455;28;20470;-77
2021/09/13 14:18:35;;;;;;;4.07;2.17;;;32.00;38.10;;;;;;6255401;28;20415;-77
2021/09/13 14:21:37;;;;;;;3.63;2.08;;;31.90;37.60;;;;;;6248026;28;20590;-76
2021/09/13 14:24:40;;;;;;;4.35;2.08;;;31.50;37.20;;;;;;6248398;28;20517;-77
2021/09/13 14:27:43;;;;;;;2.30;2.10;;;31.40;38.40;;;;;;6247911;28;20529;-77
2021/09/13 14:30:44;;;;;;;6.13;2.23;;;31.40;38.30;;;;;;6246849;28;20506;-76
2021/09/13 14:33:46;;;;;;;4.28;2.30;;;31.60;37.90;;;;;;6247153;28;20940;-78
2021/09/13 14:36:48;;;;;;;2.72;2.25;;;31.60;37.60;;;;;;6248345;28;20413;-77
2021/09/13 14:39:51;;;;;;;5.05;2.40;;;31.70;38.30;;;;;;6246997;28;20856;-77
2021/09/13 14:42:53;;;;;;;3.00;2.08;;;31.60;38.00;;;;;;6247055;28;20446;-76
2021/09/13 14:45:55;;;;;;;4.33;2.03;;;31.60;37.90;;;;;;6250937;28;20504;-76
2021/09/13 14:48:57;;;;;;;2.95;2.40;;;31.30;38.50;;;;;;6262565;28;20820;-77
2021/09/13 14:51:59;;;;;;;3.50;2.08;;;31.30;39.10;;;;;;6272612;28;20433;-77
2021/09/13 14:55:02;;;;;;;5.47;2.40;;;31.30;38.90;;;;;;6271513;28;20443;-76
2021/09/13 14:58:04;;;;;;;4.57;2.28;;;31.30;39.50;;;;;;6272596;28;20436;-77
2021/09/13 15:01:06;;;;;;;3.75;2.45;;;31.30;38.90;;;;;;6249040;28;20544;-76
2021/09/13 15:04:08;;;;;;;2.58;2.00;;;30.80;38.70;;;;;;6249318;28;20435;-77
2021/09/13 15:07:10;;;;;;;3.67;1.95;;;30.40;40.10;;;;;;6247242;28;20434;-77
2021/09/13 15:10:13;;;;;;;2.97;2.00;;;30.30;41.70;;;;;;6249911;28;20466;-77
2021/09/13 15:13:15;;;;;;;4.28;1.98;;;30.10;41.40;;;;;;6249198;28;20510;-77
2021/09/13 15:16:17;;;;;;;4.20;2.38;;;29.90;42.10;;;;;;6257640;28;20495;-77
2021/09/13 15:19:19;;;;;;;3.42;2.17;;;29.70;42.90;;;;;;6265476;28;20949;-78
2021/09/13 15:22:21;;;;;;;2.47;2.10;;;29.50;43.60;;;;;;6273797;28;20505;-77
2021/09/13 15:25:24;;;;;;;2.40;2.00;;;29.40;44.50;;;;;;6272961;28;20493;-76
2021/09/13 15:28:27;;;;;;;2.60;2.40;;;29.30;44.10;;;;;;6272827;28;20870;-77
2021/09/13 15:31:29;;;;;;;6.03;2.63;;;29.20;44.10;;;;;;6272451;28;20526;-78
2021/09/13 15:34:30;;;;;;;2.75;2.30;;;29.10;44.30;;;;;;6271276;28;20475;-77
2021/09/13 15:37:32;;;;;;;5.85;2.15;;;29.10;44.50;;;;;;6273387;28;20418;-77
2021/09/13 15:40:35;;;;;;;2.75;2.30;;;29.00;43.30;;;;;;6273050;28;20464;-78
2021/09/13 15:43:37;;;;;;;3.03;2.10;;;28.80;43.40;;;;;;6271598;28;20444;-77
2021/09/13 15:46:39;;;;;;;6.47;2.58;;;28.70;43.70;;;;;;6261764;28;20476;-78
2021/09/13 15:49:41;;;;;;;3.20;2.08;;;28.60;44.70;;;;;;6268036;28;20488;-79
2021/09/13 15:52:43;;;;;;;3.70;2.10;;;28.60;44.20;;;;;;6273270;28;20511;-78